Time;durP1;ratioP1;P1;durP2;ratioP2;P2;SDS_P1;SDS_P2;PMS_P1;PMS_P2;Temp;Humidity;BMP_temperature;BMP_pressure;BME280_temperature;BME280_humidity;BME280_pressure;Samples;Min_cycle;Max_cycle;Signal;HPM_P1;HPM_P2
2023/05/13 00:00:25;;;;;;;14.18;7.10;;;;;;;13.34;80.15;100016.28;4940035;28;20043;-91
2023/05/13 00:02:52;;;;;;;15.07;6.90;;;;;;;13.31;80.32;100021.09;4949822;28;20039;-89
2023/05/13 00:05:19;;;;;;;14.40;7.10;;;;;;;13.30;79.93;100022.88;4936107;28;20058;-89
2023/05/13 00:07:46;;;;;;;18.20;7.07;;;;;;;13.27;80.23;100014.34;4932873;28;20058;-90
2023/05/13 00:10:13;;;;;;;18.35;7.53;;;;;;;13.26;80.47;100013.50;4964731;28;20136;-91
2023/05/13 00:12:39;;;;;;;17.95;7.10;;;;;;;13.23;80.51;100019.97;4919763;28;20130;-90
2023/05/13 00:15:07;;;;;;;17.08;7.68;;;;;;;13.31;80.27;100013.91;4931048;28;20059;-90
2023/05/13 00:17:34;;;;;;;16.50;8.10;;;;;;;13.25;80.30;100015.31;4933664;28;20118;-91
2023/05/13 00:20:01;;;;;;;29.75;8.57;;;;;;;13.34;80.09;100015.44;4948568;28;20383;-91
2023/05/13 00:22:27;;;;;;;17.10;7.72;;;;;;;13.30;79.97;100006.88;4930904;28;20494;-91
2023/05/13 00:24:54;;;;;;;17.85;8.73;;;;;;;13.27;80.12;100011.69;4922583;28;20062;-91
2023/05/13 00:27:21;;;;;;;19.17;7.80;;;;;;;13.24;80.46;100018.13;4921414;28;20122;-90
2023/05/13 00:29:48;;;;;;;16.80;7.95;;;;;;;13.24;80.36;100013.63;4901229;28;20368;-91
2023/05/13 00:32:15;;;;;;;15.98;7.97;;;;;;;13.19;80.71;100021.22;4948622;28;20034;-89
2023/05/13 00:34:42;;;;;;;16.45;8.15;;;;;;;13.18;80.62;100014.22;4920225;28;20038;-90
2023/05/13 00:37:09;;;;;;;15.75;7.75;;;;;;;13.12;80.43;100008.63;4927774;28;20467;-89
2023/05/13 00:39:36;;;;;;;17.40;7.63;;;;;;;13.11;79.90;100009.63;4920651;28;20074;-90
2023/05/13 00:42:03;;;;;;;14.50;7.05;;;;;;;13.07;79.97;100014.41;4932437;28;20411;-91
2023/05/13 00:44:30;;;;;;;16.95;7.68;;;;;;;13.06;79.57;100015.41;4915198;28;20047;-91
2023/05/13 00:46:57;;;;;;;16.13;8.13;;;;;;;13.07;79.82;100013.56;4948094;28;20055;-90
2023/05/13 00:49:24;;;;;;;18.90;7.63;;;;;;;13.02;80.04;100008.69;4932650;28;20047;-91
2023/05/13 00:51:53;;;;;;;16.92;7.80;;;;;;;13.01;79.90;100012.34;4919508;28;20035;-91
2023/05/13 00:54:20;;;;;;;13.02;7.00;;;;;;;12.99;79.72;100011.66;4920963;28;20043;-89
2023/05/13 00:56:47;;;;;;;16.98;8.07;;;;;;;12.95;79.36;100004.91;4917090;28;20426;-92
2023/05/13 00:59:14;;;;;;;16.70;7.60;;;;;;;12.93;79.26;99999.75;4917467;28;20069;-91
2023/05/13 01:01:49;;;;;;;19.85;7.65;;;;;;;12.92;79.36;100010.53;4936749;28;20055;-90
2023/05/13 01:04:20;;;;;;;13.43;6.82;;;;;;;13.01;79.69;100009.69;4927260;28;20078;-89
2023/05/13 01:07:06;;;;;;;16.77;7.22;;;;;;;12.93;79.57;100013.06;4917687;28;20054;-90
2023/05/13 01:09:54;;;;;;;21.90;9.55;;;;;;;12.93;79.26;100017.56;4936564;28;20043;-91
2023/05/13 01:12:27;;;;;;;23.33;9.10;;;;;;;12.96;79.02;100011.94;4944154;28;20495;-89
2023/05/13 01:15:02;;;;;;;20.02;9.43;;;;;;;12.99;78.95;100014.31;4932628;28;20035;-90
2023/05/13 01:18:00;;;;;;;21.52;8.88;;;;;;;12.96;79.05;100014.59;4917705;28;20075;-90
2023/05/13 01:20:27;;;;;;;27.67;10.00;;;;;;;13.11;78.45;100009.63;4948608;28;20475;-91
2023/05/13 01:22:55;;;;;;;20.63;10.27;;;;;;;13.03;78.65;100013.88;4934291;28;20126;-90
2023/05/13 01:25:23;;;;;;;16.95;8.38;;;;;;;12.92;79.50;100013.22;4929349;28;20083;-90
2023/05/13 01:27:49;;;;;;;20.50;8.80;;;;;;;12.89;79.41;100019.66;4949202;28;20491;-90
2023/05/13 01:30:17;;;;;;;22.00;9.65;;;;;;;12.87;79.22;100010.16;4930776;28;20067;-91
2023/05/13 01:32:43;;;;;;;18.45;9.80;;;;;;;12.90;78.92;100004.50;4901426;28;20058;-89
2023/05/13 01:35:10;;;;;;;22.77;8.95;;;;;;;12.94;78.61;100024.56;4936038;28;20075;-91
2023/05/13 01:37:42;;;;;;;17.15;9.13;;;;;;;12.96;78.32;100010.09;4945651;28;20056;-90
2023/05/13 01:40:10;;;;;;;22.38;9.65;;;;;;;12.97;78.48;100010.94;4960341;28;20054;-89
2023/05/13 01:42:59;;;;;;;19.95;8.70;;;;;;;12.91;78.73;100012.38;4951113;28;20074;-91
2023/05/13 01:45:29;;;;;;;23.25;8.38;;;;;;;12.89;78.19;100018.84;4948212;28;20378;-89
2023/05/13 01:47:57;;;;;;;18.20;8.38;;;;;;;12.91;78.40;100014.22;4927312;28;20475;-89
2023/05/13 01:50:27;;;;;;;20.40;8.48;;;;;;;12.89;78.80;100024.16;4916830;28;20387;-90
2023/05/13 01:52:56;;;;;;;16.33;8.77;;;;;;;12.83;78.88;100020.28;4934533;28;20059;-90
2023/05/13 01:55:23;;;;;;;16.15;8.52;;;;;;;12.86;78.33;100022.63;4936437;28;20427;-90
2023/05/13 01:57:50;;;;;;;18.38;8.55;;;;;;;12.82;78.32;100019.44;4921670;28;20155;-89
2023/05/13 02:00:17;;;;;;;29.13;8.88;;;;;;;12.92;77.51;100024.69;4951516;28;20047;-89
2023/05/13 02:02:47;;;;;;;18.98;8.55;;;;;;;12.81;78.10;100017.75;4937523;28;20126;-90
2023/05/13 02:05:15;;;;;;;17.35;8.50;;;;;;;12.76;78.37;100028.00;4954588;28;20058;-89
2023/05/13 02:07:43;;;;;;;19.30;9.00;;;;;;;12.80;77.56;100025.91;4912943;28;20047;-90
2023/05/13 02:10:10;;;;;;;18.55;7.80;;;;;;;12.83;77.17;100022.94;4951582;28;20935;-89
2023/05/13 02:12:37;;;;;;;16.77;7.63;;;;;;;12.84;76.99;100021.94;4970185;28;20365;-91
2023/05/13 02:15:04;;;;;;;16.20;8.45;;;;;;;12.84;76.67;100024.59;4948756;28;20061;-90
2023/05/13 02:17:31;;;;;;;17.80;8.27;;;;;;;12.87;76.43;100026.13;4966517;28;20055;-89
2023/05/13 02:19:58;;;;;;;14.27;7.82;;;;;;;12.78;76.91;100017.19;4939386;28;20450;-90
2023/05/13 02:22:25;;;;;;;18.63;8.25;;;;;;;12.71;77.23;100016.09;4952848;28;20054;-90
2023/05/13 02:24:52;;;;;;;16.35;7.75;;;;;;;12.68;77.68;100006.56;4929574;28;20050;-90
2023/05/13 02:27:19;;;;;;;18.88;8.65;;;;;;;12.65;78.06;100017.53;4937077;28;20050;-90
2023/05/13 02:29:46;;;;;;;14.57;7.50;;;;;;;12.66;78.14;100015.69;4885918;29;20391;-90
2023/05/13 02:32:13;;;;;;;14.93;7.53;;;;;;;12.55;78.23;100017.53;4933340;28;20070;-89
2023/05/13 02:34:40;;;;;;;15.88;7.82;;;;;;;12.53;78.33;100013.34;4925393;28;20675;-90
2023/05/13 02:37:07;;;;;;;16.05;8.52;;;;;;;12.48;77.90;100010.28;4931552;28;20085;-91
2023/05/13 02:39:42;;;;;;;20.40;9.32;;;;;;;12.47;78.19;100004.13;4959283;28;20044;-90
2023/05/13 02:42:09;;;;;;;14.43;6.95;;;;;;;12.50;78.36;100013.63;4907413;28;20051;-90
2023/05/13 02:44:36;;;;;;;12.40;7.70;;;;;;;12.46;78.24;100009.56;4919248;28;20055;-91
2023/05/13 02:47:03;;;;;;;18.70;8.40;;;;;;;12.48;77.96;100012.94;4967850;28;20058;-90
2023/05/13 02:49:30;;;;;;;14.25;7.00;;;;;;;12.48;77.81;100008.44;4935825;28;20482;-90
2023/05/13 02:51:56;;;;;;;17.23;8.02;;;;;;;12.51;77.56;100020.63;4918763;28;20055;-89
2023/05/13 02:54:31;;;;;;;17.65;8.40;;;;;;;12.44;78.10;100016.84;4934860;28;20046;-90
2023/05/13 02:56:58;;;;;;;17.60;7.53;;;;;;;12.38;78.14;100021.78;4940322;28;20808;-88
2023/05/13 02:59:25;;;;;;;22.92;8.18;;;;;;;12.38;77.91;100024.44;4934900;28;20464;-89
2023/05/13 03:01:51;;;;;;;19.23;8.30;;;;;;;12.31;77.94;100012.69;4955119;28;20047;-89
2023/05/13 03:04:18;;;;;;;16.98;8.43;;;;;;;12.31;78.15;100017.16;4932582;28;20054;-89
2023/05/13 03:06:46;;;;;;;15.85;7.35;;;;;;;12.23;77.93;100017.03;4940083;28;20130;-89
2023/05/13 03:09:13;;;;;;;14.27;7.38;;;;;;;12.21;77.88;100025.16;4956635;28;20054;-89
2023/05/13 03:11:40;;;;;;;17.70;7.95;;;;;;;12.15;78.04;100026.56;4931237;28;20052;-90
2023/05/13 03:14:07;;;;;;;16.50;8.40;;;;;;;12.14;78.19;100018.75;4949807;28;20055;-89
2023/05/13 03:16:34;;;;;;;20.58;9.13;;;;;;;12.11;78.33;100019.84;4941648;28;20549;-89
2023/05/13 03:19:01;;;;;;;20.05;7.43;;;;;;;12.08;78.18;100017.47;4919176;28;20058;-90
2023/05/13 03:21:28;;;;;;;16.60;8.40;;;;;;;12.15;77.75;100015.91;4944048;28;20047;-89
2023/05/13 03:23:55;;;;;;;22.20;10.25;;;;;;;12.22;77.67;100031.34;4942154;28;20402;-89
2023/05/13 03:26:22;;;;;;;16.20;7.68;;;;;;;12.24;77.90;100026.72;4952942;28;20062;-89
2023/05/13 03:28:49;;;;;;;17.33;8.70;;;;;;;12.25;77.17;100029.22;4937724;28;20110;-90
2023/05/13 03:31:16;;;;;;;16.52;8.07;;;;;;;12.23;77.39;100035.66;4938748;28;20047;-89
2023/05/13 03:33:43;;;;;;;16.17;7.70;;;;;;;12.25;77.55;100034.53;4936392;28;22915;-89
2023/05/13 03:36:11;;;;;;;21.45;7.97;;;;;;;12.19;77.96;100043.13;4918182;28;20055;-90
2023/05/13 03:38:39;;;;;;;15.70;7.47;;;;;;;12.17;77.97;100042.41;4950980;28;20042;-89
2023/05/13 03:41:06;;;;;;;16.85;8.85;;;;;;;12.20;77.62;100041.28;4932826;28;20062;-89
2023/05/13 03:43:33;;;;;;;14.95;7.60;;;;;;;12.20;77.70;100039.47;4952065;28;20049;-89
2023/05/13 03:46:04;;;;;;;14.70;8.85;;;;;;;12.22;77.82;100042.00;4922534;28;20055;-90
2023/05/13 03:48:31;;;;;;;15.50;7.82;;;;;;;12.19;77.43;100040.44;4925964;28;20435;-89
2023/05/13 03:51:00;;;;;;;20.60;9.38;;;;;;;12.20;77.01;100042.13;4916886;28;20093;-90
2023/05/13 03:53:28;;;;;;;15.43;8.02;;;;;;;12.16;77.56;100048.69;4949285;28;20474;-90
2023/05/13 03:55:55;;;;;;;14.77;7.75;;;;;;;12.12;77.65;100049.97;4964233;28;20118;-89
2023/05/13 03:58:23;;;;;;;17.33;7.93;;;;;;;12.19;77.87;100053.75;4948058;28;20382;-90
2023/05/13 04:00:49;;;;;;;16.52;7.43;;;;;;;12.14;77.83;100053.34;4952763;28;20058;-90
2023/05/13 04:03:17;;;;;;;13.57;7.85;;;;;;;12.20;78.03;100046.59;4901451;28;20039;-91
2023/05/13 04:05:47;;;;;;;16.70;8.65;;;;;;;12.18;77.73;100057.38;4933827;28;20082;-89
2023/05/13 04:08:14;;;;;;;18.65;8.65;;;;;;;12.21;78.24;100053.59;4929920;28;20043;-89
2023/05/13 04:10:42;;;;;;;13.20;7.15;;;;;;;12.23;77.62;100055.16;4917585;28;20058;-90
2023/05/13 04:13:08;;;;;;;14.27;7.93;;;;;;;12.28;77.56;100052.91;4950324;28;20077;-90
2023/05/13 04:15:35;;;;;;;20.02;8.93;;;;;;;12.36;77.14;100058.38;4951348;28;20066;-90
2023/05/13 04:18:04;;;;;;;18.45;9.73;;;;;;;12.78;77.98;100054.50;4923441;28;20511;-89
2023/05/13 04:20:31;;;;;;;15.05;7.63;;;;;;;13.62;77.01;100054.44;4951369;28;20057;-89
2023/05/13 04:22:58;;;;;;;17.00;8.52;;;;;;;14.26;73.48;100051.72;4949621;28;20062;-89
2023/05/13 04:25:24;;;;;;;22.65;8.07;;;;;;;14.36;70.72;100057.81;4952048;28;20523;-89
2023/05/13 04:27:51;;;;;;;24.25;9.80;;;;;;;14.35;68.83;100058.81;4936316;28;20047;-89
2023/05/13 04:30:27;;;;;;;14.00;7.90;;;;;;;14.30;68.72;100064.63;4917431;28;20101;-90
2023/05/13 04:32:54;;;;;;;22.35;8.63;;;;;;;14.01;69.13;100069.34;4922386;28;20053;-90
2023/05/13 04:35:21;;;;;;;17.65;7.78;;;;;;;13.69;70.13;100068.03;4937565;28;20047;-89
2023/05/13 04:37:52;;;;;;;17.10;8.75;;;;;;;13.41;70.82;100068.03;4919050;28;20455;-89
2023/05/13 04:40:20;;;;;;;25.38;9.20;;;;;;;13.29;71.60;100077.22;4945551;28;20394;-90
2023/05/13 04:42:53;;;;;;;17.70;9.02;;;;;;;13.14;72.54;100070.66;4951235;28;20705;-89
2023/05/13 04:45:25;;;;;;;14.32;7.85;;;;;;;13.02;72.99;100076.16;4931007;28;20054;-90
2023/05/13 04:47:52;;;;;;;18.73;8.82;;;;;;;12.93;73.00;100076.22;4919641;28;20457;-89
2023/05/13 04:50:21;;;;;;;17.38;8.05;;;;;;;12.86;73.32;100083.94;4934413;28;20051;-90
2023/05/13 04:52:49;;;;;;;17.88;8.85;;;;;;;12.79;73.84;100083.66;4930529;28;20051;-89
2023/05/13 04:55:16;;;;;;;21.85;8.93;;;;;;;12.74;74.39;100085.06;4934663;28;20045;-90
2023/05/13 04:57:43;;;;;;;19.73;9.27;;;;;;;12.76;74.63;100086.63;4915303;28;20657;-89
2023/05/13 05:00:11;;;;;;;21.63;9.20;;;;;;;12.76;74.62;100089.28;4930836;28;20446;-88
2023/05/13 05:02:39;;;;;;;16.00;7.88;;;;;;;12.74;74.69;100080.59;4918781;28;20463;-89
2023/05/13 05:05:06;;;;;;;18.17;8.48;;;;;;;12.70;75.72;100084.53;4935066;28;20051;-88
2023/05/13 05:07:33;;;;;;;17.75;8.30;;;;;;;12.77;74.37;100082.13;4964631;28;20411;-88
2023/05/13 05:10:00;;;;;;;19.75;8.82;;;;;;;12.72;75.27;100098.56;4950272;28;20067;-88
2023/05/13 05:12:31;;;;;;;16.33;8.93;;;;;;;12.76;75.41;100104.44;4943631;28;20392;-88
2023/05/13 05:14:57;;;;;;;14.77;8.98;;;;;;;12.80;74.73;100097.84;4932867;28;20063;-88
2023/05/13 05:17:27;;;;;;;18.38;9.25;;;;;;;12.82;74.73;100107.38;4935916;28;20391;-89
2023/05/13 05:19:55;;;;;;;20.63;9.50;;;;;;;12.86;74.13;100094.59;4950384;28;20061;-88
2023/05/13 05:22:23;;;;;;;18.60;9.15;;;;;;;12.77;74.55;100098.97;4951770;28;20050;-89
2023/05/13 05:24:49;;;;;;;20.00;8.35;;;;;;;12.77;75.59;100098.09;4931993;28;20126;-89
2023/05/13 05:27:17;;;;;;;18.05;9.20;;;;;;;12.90;75.79;100111.13;4917502;28;20050;-88
2023/05/13 05:29:44;;;;;;;16.70;8.73;;;;;;;12.89;75.20;100106.78;4934507;28;20054;-90
2023/05/13 05:32:11;;;;;;;19.17;9.35;;;;;;;12.90;75.19;100109.31;4949511;28;20091;-90
2023/05/13 05:34:38;;;;;;;17.27;9.10;;;;;;;12.94;74.18;100107.19;4918084;28;21505;-89
2023/05/13 05:37:05;;;;;;;16.40;8.38;;;;;;;12.89;73.83;100115.63;4950236;28;20070;-90
2023/05/13 05:39:34;;;;;;;17.58;8.77;;;;;;;12.83;73.58;100116.22;4952132;28;20043;-90
2023/05/13 05:42:01;;;;;;;15.18;8.30;;;;;;;12.81;72.80;100113.66;4935272;28;20059;-89
2023/05/13 05:44:27;;;;;;;17.05;8.13;;;;;;;12.80;72.71;100101.34;4923077;28;20043;-90
2023/05/13 05:46:55;;;;;;;16.70;9.23;;;;;;;12.82;73.13;100104.72;4938826;28;20047;-89
2023/05/13 05:49:22;;;;;;;15.82;7.78;;;;;;;12.85;72.71;100111.59;4948149;28;20355;-90
2023/05/13 05:51:49;;;;;;;17.15;8.32;;;;;;;12.80;72.45;100117.34;4935814;28;20071;-90
2023/05/13 05:54:16;;;;;;;18.13;8.80;;;;;;;12.76;72.95;100118.59;4904031;28;20043;-89
2023/05/13 05:56:43;;;;;;;15.32;8.80;;;;;;;12.80;73.37;100113.84;4945316;28;20051;-89
2023/05/13 05:59:10;;;;;;;16.25;9.43;;;;;;;12.81;72.84;100113.66;4922071;28;20090;-91
2023/05/13 06:01:37;;;;;;;18.85;8.18;;;;;;;12.83;73.15;100124.19;4934763;28;20134;-90
2023/05/13 06:04:05;;;;;;;16.42;8.63;;;;;;;12.83;72.59;100126.88;4933052;28;20134;-91
2023/05/13 06:06:32;;;;;;;17.25;7.97;;;;;;;12.87;72.67;100122.91;4921654;28;20502;-87
2023/05/13 06:08:59;;;;;;;17.20;9.02;;;;;;;12.89;72.46;100114.78;4929752;28;20051;-85
2023/05/13 06:11:27;;;;;;;14.35;7.80;;;;;;;12.92;72.45;100119.81;4945317;28;20051;-87
2023/05/13 06:13:53;;;;;;;14.82;7.90;;;;;;;12.97;72.24;100118.41;4948972;28;20038;-88
2023/05/13 06:16:20;;;;;;;16.40;8.55;;;;;;;12.99;71.86;100119.09;4933644;28;20502;-88
2023/05/13 06:18:47;;;;;;;18.52;7.97;;;;;;;13.01;72.49;100114.47;4950416;28;20054;-87
2023/05/13 06:21:14;;;;;;;15.25;8.40;;;;;;;13.07;72.44;100112.22;4936798;28;20470;-87
2023/05/13 06:23:41;;;;;;;17.08;7.65;;;;;;;13.08;71.95;100121.88;4899569;28;20036;-88
2023/05/13 06:26:08;;;;;;;14.18;8.18;;;;;;;13.09;71.97;100116.41;4935939;28;20106;-86
2023/05/13 06:28:34;;;;;;;14.57;8.10;;;;;;;13.18;71.86;100120.06;4951494;28;20657;-84
2023/05/13 06:31:01;;;;;;;18.35;8.05;;;;;;;13.24;71.85;100119.47;4919150;28;20051;-85
2023/05/13 06:33:28;;;;;;;18.60;8.45;;;;;;;13.27;71.92;100129.84;4952793;28;20070;-85
2023/05/13 06:35:55;;;;;;;19.00;8.45;;;;;;;13.33;71.66;100125.75;4930802;28;20054;-85
2023/05/13 06:38:23;;;;;;;18.15;8.50;;;;;;;13.32;71.64;100124.94;4949444;28;20104;-85
2023/05/13 06:40:54;;;;;;;14.93;7.72;;;;;;;13.37;71.88;100129.81;4918840;28;20398;-84
2023/05/13 06:43:28;;;;;;;16.00;7.85;;;;;;;13.36;70.81;100129.00;4922745;28;20047;-85
2023/05/13 06:45:58;;;;;;;22.98;9.00;;;;;;;13.43;71.53;100131.91;4916731;28;20066;-84
2023/05/13 06:48:27;;;;;;;19.40;8.13;;;;;;;13.49;71.70;100136.66;4950044;28;20138;-85
2023/05/13 06:50:53;;;;;;;15.18;7.68;;;;;;;13.50;71.69;100129.50;4919449;28;20093;-84
2023/05/13 06:53:21;;;;;;;17.20;8.55;;;;;;;13.50;71.80;100130.31;4933264;28;20518;-84
2023/05/13 06:55:47;;;;;;;15.25;7.85;;;;;;;13.58;71.58;100122.41;4950577;28;20124;-84
2023/05/13 06:58:14;;;;;;;12.35;6.78;;;;;;;13.65;71.18;100122.69;4951328;28;20403;-85
2023/05/13 07:00:42;;;;;;;15.82;7.25;;;;;;;13.60;71.34;100125.78;4928444;28;20050;-84
2023/05/13 07:03:08;;;;;;;12.93;7.10;;;;;;;13.63;70.90;100125.47;4935873;28;20047;-87
2023/05/13 07:05:35;;;;;;;18.92;7.43;;;;;;;13.65;69.93;100123.50;4938550;28;20051;-86
2023/05/13 07:08:05;;;;;;;11.65;6.90;;;;;;;13.64;69.69;100121.84;4927987;28;20051;-87
2023/05/13 07:10:33;;;;;;;15.13;6.45;;;;;;;13.69;70.25;100129.41;4930289;28;20043;-85
2023/05/13 07:13:00;;;;;;;13.35;6.97;;;;;;;13.77;70.47;100134.84;4933211;28;20134;-86
2023/05/13 07:15:27;;;;;;;13.57;6.72;;;;;;;13.82;70.67;100129.88;4914291;28;20428;-85
2023/05/13 07:17:54;;;;;;;13.73;7.13;;;;;;;13.88;70.49;100129.28;4938229;28;20053;-86
2023/05/13 07:20:21;;;;;;;13.20;6.93;;;;;;;13.92;70.49;100127.16;4948665;28;20074;-86
2023/05/13 07:22:49;;;;;;;18.13;8.10;;;;;;;13.95;70.65;100132.19;4948641;28;20062;-87
2023/05/13 07:25:16;;;;;;;13.90;6.88;;;;;;;13.93;70.65;100136.84;4946945;28;20051;-87
2023/05/13 07:27:43;;;;;;;15.68;7.78;;;;;;;13.88;69.11;100133.78;4930348;28;20046;-88
2023/05/13 07:30:11;;;;;;;14.02;6.85;;;;;;;13.81;69.12;100133.53;4934366;28;20411;-85
2023/05/13 07:32:39;;;;;;;12.23;6.70;;;;;;;13.84;69.33;100135.06;4952188;28;20039;-84
2023/05/13 07:35:06;;;;;;;13.32;7.97;;;;;;;13.92;70.04;100137.84;4950676;28;20066;-86
2023/05/13 07:37:33;;;;;;;19.75;7.75;;;;;;;13.93;69.60;100128.00;4933071;28;20406;-86
2023/05/13 07:40:00;;;;;;;15.55;7.63;;;;;;;13.98;69.51;100131.88;4950762;28;20058;-86
2023/05/13 07:42:28;;;;;;;18.13;7.35;;;;;;;13.99;69.67;100138.06;4948123;28;20073;-87
2023/05/13 07:44:55;;;;;;;17.13;6.97;;;;;;;13.91;69.42;100133.47;4936135;28;20043;-86
2023/05/13 07:47:22;;;;;;;10.63;6.72;;;;;;;13.86;68.66;100125.91;4940366;28;20047;-85
2023/05/13 07:49:49;;;;;;;13.52;7.70;;;;;;;13.87;69.53;100124.09;4941011;28;20047;-84
2023/05/13 07:52:16;;;;;;;13.38;7.65;;;;;;;13.82;69.30;100137.06;4950895;28;20134;-85
2023/05/13 07:54:42;;;;;;;18.05;8.10;;;;;;;13.86;69.98;100131.25;4949929;28;20114;-86
2023/05/13 07:57:09;;;;;;;14.77;7.35;;;;;;;13.93;69.82;100126.16;4931169;28;20035;-84
2023/05/13 07:59:36;;;;;;;19.02;8.88;;;;;;;13.92;70.76;100134.31;4964831;28;20061;-85
2023/05/13 08:02:03;;;;;;;16.92;8.73;;;;;;;13.90;69.31;100127.31;4934671;28;20106;-85
2023/05/13 08:04:30;;;;;;;14.05;7.25;;;;;;;13.95;69.50;100126.03;4939021;28;20043;-86
2023/05/13 08:06:56;;;;;;;10.43;6.85;;;;;;;13.98;68.92;100139.91;4919113;28;20521;-84
2023/05/13 08:09:23;;;;;;;14.15;7.45;;;;;;;13.99;68.49;100136.25;4967513;28;20035;-84
2023/05/13 08:11:50;;;;;;;12.55;6.72;;;;;;;13.97;68.93;100140.91;4947204;28;20047;-84
2023/05/13 08:14:16;;;;;;;12.00;7.07;;;;;;;14.02;69.01;100133.28;4917125;28;20069;-84
2023/05/13 08:16:43;;;;;;;12.90;8.07;;;;;;;14.07;69.22;100122.16;4948822;28;20047;-84
2023/05/13 08:19:12;;;;;;;16.17;7.22;;;;;;;14.10;67.99;100125.34;4918128;28;20398;-84
2023/05/13 08:21:40;;;;;;;14.40;7.13;;;;;;;14.11;68.60;100120.84;4956808;28;20043;-84
2023/05/13 08:24:06;;;;;;;15.43;6.97;;;;;;;14.09;68.54;100126.34;4964599;28;20690;-84
2023/05/13 08:26:33;;;;;;;16.52;7.00;;;;;;;14.14;69.26;100117.88;4961595;28;20046;-84
2023/05/13 08:29:00;;;;;;;13.90;8.00;;;;;;;14.16;68.54;100117.72;4954043;28;20142;-84
2023/05/13 08:31:27;;;;;;;20.33;7.97;;;;;;;14.11;68.19;100123.50;4914654;28;20043;-84
2023/05/13 08:33:54;;;;;;;12.07;6.10;;;;;;;14.21;68.55;100110.09;4911342;28;20694;-84
2023/05/13 08:36:21;;;;;;;11.90;7.28;;;;;;;14.25;68.67;100114.16;4932927;28;20106;-84
2023/05/13 08:38:48;;;;;;;10.30;6.53;;;;;;;14.32;69.04;100102.69;4951903;28;20051;-84
2023/05/13 08:41:15;;;;;;;12.32;6.55;;;;;;;14.42;69.36;100107.09;4940178;28;20133;-84
2023/05/13 08:43:42;;;;;;;9.57;5.97;;;;;;;14.52;69.85;100114.03;4932912;28;20047;-83
2023/05/13 08:46:10;;;;;;;10.30;6.22;;;;;;;14.60;69.26;100113.28;4933091;28;20070;-84
2023/05/13 08:48:38;;;;;;;10.98;6.45;;;;;;;14.66;68.64;100117.19;4932050;28;20070;-83
2023/05/13 08:51:05;;;;;;;14.00;6.43;;;;;;;14.70;69.06;100118.56;4964312;28;20051;-83
2023/05/13 08:53:34;;;;;;;11.40;6.25;;;;;;;14.76;68.47;100112.59;4931982;28;20050;-84
2023/05/13 08:56:00;;;;;;;13.93;6.95;;;;;;;14.83;67.90;100110.97;4952674;28;20043;-84
2023/05/13 08:58:27;;;;;;;15.18;6.22;;;;;;;14.79;68.36;100114.97;4955824;28;20061;-84
2023/05/13 09:00:54;;;;;;;10.50;6.38;;;;;;;14.83;68.07;100121.66;4931079;28;20537;-84
2023/05/13 09:03:21;;;;;;;10.30;5.93;;;;;;;14.82;67.55;100117.31;4946597;28;20040;-84
2023/05/13 09:05:49;;;;;;;10.80;6.25;;;;;;;14.87;67.89;100117.69;4948975;28;20051;-84
2023/05/13 09:08:16;;;;;;;10.10;6.20;;;;;;;14.92;67.90;100118.06;4924615;28;20050;-87
2023/05/13 09:10:42;;;;;;;11.80;6.40;;;;;;;14.94;68.32;100115.22;4895071;28;20074;-89
2023/05/13 09:13:11;;;;;;;16.55;7.50;;;;;;;14.97;67.18;100129.13;4953254;28;20049;-89
2023/05/13 09:15:41;;;;;;;13.15;7.18;;;;;;;14.92;66.83;100122.56;4947174;28;20070;-88
2023/05/13 09:18:08;;;;;;;12.65;6.47;;;;;;;14.97;67.42;100114.91;4945153;28;20101;-89
2023/05/13 09:20:35;;;;;;;12.52;6.28;;;;;;;15.00;67.80;100111.91;4949737;28;20392;-88
2023/05/13 09:23:04;;;;;;;13.25;6.55;;;;;;;15.05;68.16;100112.28;4936327;28;20053;-88
2023/05/13 09:25:31;;;;;;;11.32;6.25;;;;;;;15.10;67.93;100115.31;4967962;28;20043;-89
2023/05/13 09:28:00;;;;;;;11.38;5.68;;;;;;;15.15;68.23;100115.69;4949160;28;20055;-89
2023/05/13 09:30:34;;;;;;;9.15;5.78;;;;;;;15.20;68.01;100115.22;4965472;28;20414;-88
2023/05/13 09:33:09;;;;;;;9.70;5.97;;;;;;;15.19;67.53;100114.38;4956845;28;20059;-88
2023/05/13 09:35:38;;;;;;;9.73;5.97;;;;;;;15.24;67.54;100111.25;4934143;28;20499;-88
2023/05/13 09:38:12;;;;;;;9.45;6.22;;;;;;;15.20;66.61;100108.03;4911697;28;20055;-88
2023/05/13 09:40:40;;;;;;;12.45;6.07;;;;;;;15.24;67.29;100116.59;4938598;28;20554;-89
2023/05/13 09:43:07;;;;;;;11.38;5.60;;;;;;;15.26;67.53;100111.88;4935648;28;20053;-88
2023/05/13 09:45:35;;;;;;;11.25;6.03;;;;;;;15.30;67.83;100110.59;4937672;28;20666;-89
2023/05/13 09:48:02;;;;;;;19.05;7.68;;;;;;;15.30;67.72;100117.78;4971926;28;20050;-88
2023/05/13 09:50:30;;;;;;;13.23;6.65;;;;;;;15.36;66.53;100117.13;4949717;28;20061;-88
2023/05/13 09:52:57;;;;;;;11.13;6.50;;;;;;;15.31;66.79;100119.44;4917989;28;20054;-87
2023/05/13 09:55:24;;;;;;;11.10;6.65;;;;;;;15.31;67.09;100117.59;4954400;28;20774;-87
2023/05/13 09:57:52;;;;;;;11.60;6.50;;;;;;;15.37;67.38;100121.50;4932915;28;20043;-88
2023/05/13 10:00:18;;;;;;;11.35;6.45;;;;;;;15.39;67.77;100130.19;4949477;28;20051;-86
2023/05/13 10:02:58;;;;;;;11.48;6.85;;;;;;;15.37;66.52;100116.16;4953080;28;20458;-87
2023/05/13 10:05:25;;;;;;;11.98;6.85;;;;;;;15.35;66.04;100110.94;4944148;28;20079;-87
2023/05/13 10:07:51;;;;;;;13.85;6.57;;;;;;;15.39;65.80;100116.81;4934824;28;20055;-88
2023/05/13 10:10:18;;;;;;;11.93;6.55;;;;;;;15.38;66.75;100113.28;4935215;28;20109;-88
2023/05/13 10:12:48;;;;;;;14.50;6.95;;;;;;;15.43;67.14;100114.66;4963032;28;20043;-88
2023/05/13 10:15:15;;;;;;;9.35;5.88;;;;;;;15.45;66.96;100118.03;4950628;28;20047;-89
2023/05/13 10:17:43;;;;;;;9.50;6.22;;;;;;;15.46;66.46;100120.53;4920158;28;20053;-88
2023/05/13 10:20:10;;;;;;;14.48;6.78;;;;;;;15.46;66.53;100117.84;4912148;28;20057;-89
2023/05/13 10:22:37;;;;;;;11.20;6.50;;;;;;;15.53;65.65;100134.94;4949695;28;20127;-88
2023/05/13 10:25:05;;;;;;;12.93;8.35;;;;;;;15.46;65.68;100120.53;4931980;28;20110;-87
2023/05/13 10:27:32;;;;;;;8.23;5.53;;;;;;;15.51;66.34;100123.56;4949416;28;20071;-88
2023/05/13 10:30:00;;;;;;;11.30;6.45;;;;;;;15.57;67.01;100119.38;4919783;28;20125;-87
2023/05/13 10:32:30;;;;;;;8.40;6.07;;;;;;;15.62;66.73;100114.41;4934684;28;20090;-88
2023/05/13 10:35:03;;;;;;;7.95;6.20;;;;;;;15.61;66.45;100118.91;4931640;28;20055;-88
2023/05/13 10:38:02;;;;;;;12.10;6.10;;;;;;;15.62;65.89;100109.91;4908451;28;20046;-89
2023/05/13 10:41:04;;;;;;;11.13;5.82;;;;;;;15.66;66.14;100106.91;4930047;28;20054;-89
2023/05/13 10:43:34;;;;;;;10.65;6.38;;;;;;;15.77;66.77;100111.97;4941169;28;20055;-89
2023/05/13 10:46:03;;;;;;;9.82;5.85;;;;;;;15.83;66.81;100103.31;4949248;28;20055;-89
2023/05/13 10:48:46;;;;;;;11.82;6.13;;;;;;;15.77;63.82;100123.53;4949626;28;20097;-89
2023/05/13 10:51:14;;;;;;;9.80;5.53;;;;;;;15.81;63.70;100121.38;4932950;28;20051;-89
2023/05/13 10:53:52;;;;;;;12.52;5.72;;;;;;;15.75;63.38;100114.84;4965932;28;20446;-88
2023/05/13 10:56:21;;;;;;;11.93;5.55;;;;;;;15.78;64.53;100109.16;4950735;28;20043;-89
2023/05/13 10:59:02;;;;;;;11.00;5.45;;;;;;;15.78;64.84;100111.00;4937519;28;20047;-89
2023/05/13 11:01:41;;;;;;;11.88;6.10;;;;;;;15.85;64.79;100104.00;4959376;28;20439;-88
2023/05/13 11:04:14;;;;;;;10.05;5.75;;;;;;;15.87;63.82;100106.47;4961726;28;20551;-88
2023/05/13 11:06:45;;;;;;;12.93;5.57;;;;;;;15.92;63.86;100102.31;4933318;28;20047;-89
2023/05/13 11:09:29;;;;;;;8.02;5.60;;;;;;;15.88;63.80;100094.78;4959284;28;20080;-89
2023/05/13 11:11:57;;;;;;;11.43;5.32;;;;;;;15.99;64.25;100106.00;4941028;28;20046;-88
2023/05/13 11:14:28;;;;;;;11.63;5.85;;;;;;;15.99;63.65;100099.81;4949941;28;20058;-88
2023/05/13 11:17:01;;;;;;;11.35;6.25;;;;;;;16.00;64.42;100097.00;4934014;28;20135;-89
2023/05/13 11:19:33;;;;;;;9.38;6.10;;;;;;;16.02;63.38;100100.31;4930434;28;20517;-88
2023/05/13 11:22:12;;;;;;;8.82;6.07;;;;;;;15.87;62.92;100103.81;4927539;28;20047;-87